createdAt,value
2019-05-20T00:07:06.123Z,0.01
2019-05-20T00:17:06.067Z,0.27
2019-05-20T00:27:06.022Z,0.95
2019-05-20T00:37:06.127Z,0.92
2019-05-20T00:47:06.093Z,0.62
2019-05-20T00:57:06.094Z,0.79
2019-05-20T01:07:06.106Z,0.39
2019-05-20T01:17:09.544Z,0.26
2019-05-20T01:27:06.092Z,0.32
2019-05-20T01:37:06.093Z,0.35
2019-05-20T01:47:06.054Z,0.03
2019-05-20T01:57:06.118Z,0.21
2019-05-20T02:07:06.204Z,0.08
2019-05-20T02:17:06.039Z,0.14
2019-05-20T02:27:06.103Z,0.74
2019-05-20T02:37:06.104Z,0.19
2019-05-20T02:47:06.068Z,0.36
2019-05-20T02:57:06.114Z,0.24
2019-05-20T03:07:06.188Z,0.38
2019-05-20T03:17:06.057Z,0.29
2019-05-20T03:27:06.109Z,0.17
2019-05-20T03:37:06.083Z,0.20
2019-05-20T03:47:06.080Z,0.43
2019-05-20T03:57:06.123Z,0.46
2019-05-20T04:07:06.090Z,0.04
2019-05-20T04:17:06.053Z,0.05
2019-05-20T04:27:06.124Z,0.04
2019-05-20T04:37:07.011Z,0.11
2019-05-20T04:47:06.117Z,0.13
2019-05-20T04:57:06.059Z,0.06
2019-05-20T05:07:06.159Z,0.30
2019-05-20T05:17:07.010Z,0.27
2019-05-20T05:27:06.052Z,0.39
2019-05-20T05:47:13.466Z,0.56
2019-05-20T05:57:13.430Z,0.25
2019-05-20T06:07:13.438Z,0.50
2019-05-20T06:31:55.874Z,0.67
2019-05-20T06:41:56.064Z,0.62
2019-05-20T06:51:56.011Z,0.73
2019-05-20T07:01:56.108Z,0.68
2019-05-20T07:11:57.706Z,0.99
2019-05-20T07:21:56.036Z,0.62
2019-05-20T07:31:56.123Z,1.13
2019-05-20T07:41:56.079Z,1.54
2019-05-20T07:51:56.054Z,0.82
2019-05-20T08:01:57.038Z,1.28
2019-05-20T08:11:56.115Z,1.00
2019-05-20T08:21:56.046Z,1.09
2019-05-20T16:48:25.801Z,1.55
2019-05-20T16:58:25.915Z,1.41
2019-05-20T17:08:25.864Z,1.62
2019-05-20T17:18:25.843Z,1.48
2019-05-20T17:28:25.803Z,1.26
2019-05-20T17:38:25.898Z,1.14
2019-05-20T17:48:25.829Z,1.27
2019-05-20T17:58:26.754Z,1.51
2019-05-20T18:08:25.871Z,1.05
2019-05-20T18:18:25.889Z,1.37
2019-05-20T18:28:25.831Z,1.48
2019-05-20T18:38:25.995Z,1.14
2019-05-20T18:48:25.857Z,1.40
2019-05-20T18:58:25.994Z,1.28
2019-05-20T19:08:25.898Z,1.39
2019-05-20T19:18:27.795Z,1.02
2019-05-20T19:28:27.890Z,1.08
2019-05-20T19:38:25.885Z,1.68
2019-05-20T19:48:25.877Z,1.05
2019-05-20T19:58:25.832Z,1.40
2019-05-20T20:08:25.917Z,1.56
2019-05-20T20:18:25.879Z,1.58
2019-05-20T20:28:25.942Z,1.69
2019-05-20T20:38:25.893Z,1.66
2019-05-20T20:48:25.926Z,1.52
2019-05-20T20:58:25.937Z,1.48
2019-05-20T21:08:26.518Z,1.56
